Time;durP1;ratioP1;P1;durP2;ratioP2;P2;SDS_P1;SDS_P2;PMS_P1;PMS_P2;Temp;Humidity;BMP_temperature;BMP_pressure;BME280_temperature;BME280_humidity;BME280_pressure;Samples;Min_cycle;Max_cycle;Signal;HPM_P1;HPM_P2
2023/01/20 00:00:17;;;;;;;42.35;25.60;;;;;;;15.91;45.65;92403.66;4933562;29;20051;-92
2023/01/20 00:02:43;;;;;;;49.15;31.55;;;;;;;16.05;46.10;92407.16;4934138;29;20071;-90
2023/01/20 00:05:08;;;;;;;35.95;24.88;;;;;;;15.98;45.94;92408.50;4898604;28;20070;-90
2023/01/20 00:07:34;;;;;;;25.98;16.95;;;;;;;15.91;44.55;92413.81;4899007;29;20106;-90
2023/01/20 00:10:00;;;;;;;26.23;17.65;;;;;;;15.93;45.72;92414.78;4915294;29;20131;-91
2023/01/20 00:12:26;;;;;;;43.45;27.10;;;;;;;15.98;45.21;92407.78;4917225;28;20547;-91
2023/01/20 00:14:51;;;;;;;29.30;19.20;;;;;;;15.94;45.09;92413.53;4933698;29;20047;-90
2023/01/20 00:17:16;;;;;;;34.85;23.98;;;;;;;16.02;45.50;92408.94;4932995;28;20086;-90
2023/01/20 00:19:42;;;;;;;34.78;22.15;;;;;;;15.98;45.04;92403.06;4917970;28;20486;-92
2023/01/20 00:22:07;;;;;;;28.85;17.50;;;;;;;15.92;44.55;92396.94;4901381;28;20134;-90
2023/01/20 00:24:33;;;;;;;36.95;23.67;;;;;;;15.98;46.09;92397.63;4918215;29;20043;-91
2023/01/20 00:26:58;;;;;;;30.23;21.77;;;;;;;15.94;43.73;92391.00;4933537;28;20155;-90
2023/01/20 00:29:24;;;;;;;41.55;25.13;;;;;;;15.97;45.81;92389.94;4952364;28;20049;-90
2023/01/20 00:31:49;;;;;;;40.83;25.33;;;;;;;15.99;45.60;92390.91;4965645;28;20034;-90
2023/01/20 00:34:14;;;;;;;39.20;26.05;;;;;;;15.98;45.00;92403.06;4954411;28;20050;-92
2023/01/20 00:36:40;;;;;;;41.40;26.08;;;;;;;15.94;45.64;92405.34;4951131;28;20530;-91
2023/01/20 00:39:05;;;;;;;24.25;17.15;;;;;;;15.93;44.08;92406.59;4963247;28;20130;-90
2023/01/20 00:41:31;;;;;;;33.88;21.48;;;;;;;15.97;45.06;92409.78;4969489;28;20054;-90
2023/01/20 00:43:56;;;;;;;34.08;21.92;;;;;;;15.99;44.93;92401.06;4952587;28;20521;-90
2023/01/20 00:46:22;;;;;;;17.33;12.77;;;;;;;15.96;43.84;92410.28;4953256;28;20116;-90
2023/01/20 00:48:47;;;;;;;26.85;16.90;;;;;;;15.96;44.33;92404.84;4958599;28;20039;-91
2023/01/20 00:51:12;;;;;;;30.67;19.90;;;;;;;15.99;45.05;92414.69;4968611;28;20058;-91
2023/01/20 00:53:39;;;;;;;36.28;23.20;;;;;;;16.01;44.83;92412.19;4967788;28;20036;-92
2023/01/20 00:56:05;;;;;;;18.85;13.77;;;;;;;15.96;44.26;92416.47;4985682;28;20042;-90
2023/01/20 00:58:30;;;;;;;32.10;21.92;;;;;;;15.99;45.01;92423.63;4951878;28;20042;-91
2023/01/20 01:00:57;;;;;;;29.15;19.55;;;;;;;15.98;45.34;92430.31;4969614;28;20027;-91
2023/01/20 01:03:22;;;;;;;31.52;21.08;;;;;;;16.00;44.92;92432.53;4958333;28;20050;-90
2023/01/20 01:05:48;;;;;;;20.55;13.77;;;;;;;15.94;45.30;92432.59;4970147;28;20038;-91
2023/01/20 01:08:13;;;;;;;16.77;13.02;;;;;;;15.96;44.20;92432.09;4933288;28;20050;-91
2023/01/20 01:10:39;;;;;;;34.03;23.75;;;;;;;16.02;45.92;92436.19;4954880;28;20118;-91
2023/01/20 01:13:04;;;;;;;42.90;29.23;;;;;;;16.06;45.89;92433.91;4955914;28;20398;-91
2023/01/20 01:15:30;;;;;;;39.05;26.13;;;;;;;16.05;45.96;92426.97;4959135;28;20050;-91
2023/01/20 01:17:56;;;;;;;24.52;15.68;;;;;;;16.00;45.23;92430.53;4939985;28;20609;-92
2023/01/20 01:20:21;;;;;;;18.27;12.98;;;;;;;15.98;43.57;92424.13;4961705;28;20485;-91
2023/01/20 01:22:47;;;;;;;18.30;13.18;;;;;;;15.99;43.92;92433.78;4956065;28;20153;-91
2023/01/20 01:25:12;;;;;;;18.73;13.73;;;;;;;15.98;44.07;92435.78;4952593;28;20414;-90
2023/01/20 01:27:38;;;;;;;39.85;26.73;;;;;;;16.07;45.93;92429.91;4971116;28;20448;-91
2023/01/20 01:30:03;;;;;;;31.80;21.42;;;;;;;16.00;44.83;92436.00;4955674;28;20382;-90
2023/01/20 01:32:29;;;;;;;26.67;16.08;;;;;;;16.01;44.79;92448.38;4955803;28;20087;-91
2023/01/20 01:34:54;;;;;;;31.10;21.65;;;;;;;16.01;44.37;92436.72;4954367;28;20035;-90
2023/01/20 01:37:19;;;;;;;18.58;12.88;;;;;;;15.95;44.47;92453.16;4972061;28;20069;-91
2023/01/20 01:39:45;;;;;;;24.20;16.73;;;;;;;15.95;44.49;92439.53;4971713;28;20038;-90
2023/01/20 01:42:16;;;;;;;21.33;14.20;;;;;;;15.97;44.24;92460.81;4939315;28;20050;-90
2023/01/20 01:45:00;;;;;;;;;;;;;;;16.01;44.25;92456.53;4956721;28;20045;-91
2023/01/20 01:47:25;;;;;;;38.05;22.95;;;;;;;16.06;46.01;92461.16;4987772;28;19933;-90
2023/01/20 01:49:50;;;;;;;38.47;24.08;;;;;;;16.02;45.89;92465.47;4956019;28;20409;-90
2023/01/20 01:52:17;;;;;;;32.97;21.42;;;;;;;15.97;44.10;92474.44;4961398;28;20051;-91
2023/01/20 01:54:44;;;;;;;46.33;28.83;;;;;;;15.97;45.17;92477.91;4949211;28;20057;-90
2023/01/20 01:57:09;;;;;;;38.15;24.50;;;;;;;16.00;45.94;92481.59;4939551;28;20035;-91
2023/01/20 01:59:35;;;;;;;34.08;24.13;;;;;;;16.06;45.81;92487.69;4955455;28;20041;-90
2023/01/20 02:02:01;;;;;;;29.35;20.27;;;;;;;16.01;45.60;92494.72;4939340;28;20452;-90
2023/01/20 02:04:26;;;;;;;42.95;24.40;;;;;;;16.00;45.65;92490.50;4938890;28;20228;-91
2023/01/20 02:07:02;;;;;;;29.23;18.70;;;;;;;15.99;44.90;92496.47;4954011;28;20046;-90
2023/01/20 02:09:28;;;;;;;16.35;12.57;;;;;;;15.90;44.16;92500.31;4939805;28;20464;-91
2023/01/20 02:11:55;;;;;;;24.45;15.70;;;;;;;15.96;44.38;92498.25;4939523;28;20129;-90
2023/01/20 02:14:25;;;;;;;16.67;12.27;;;;;;;15.94;44.42;92506.19;4943065;28;20058;-92
2023/01/20 02:17:09;;;;;;;31.27;21.65;;;;;;;16.02;45.39;92504.34;4961531;28;20345;-90
2023/01/20 02:19:49;;;;;;;17.45;12.13;;;;;;;15.94;44.19;92514.38;4971406;28;20177;-91
2023/01/20 02:22:45;;;;;;;36.80;23.17;;;;;;;15.96;45.22;92514.59;4970971;28;20493;-90
2023/01/20 02:25:32;;;;;;;40.20;25.25;;;;;;;15.98;45.80;92508.63;4988720;28;20074;-91
2023/01/20 02:28:04;;;;;;;33.42;21.13;;;;;;;16.00;45.45;92512.31;4963616;28;20050;-92
2023/01/20 02:30:42;;;;;;;26.17;17.15;;;;;;;15.93;45.07;92502.00;4971139;28;20038;-91
2023/01/20 02:33:11;;;;;;;30.15;20.52;;;;;;;16.00;45.43;92497.94;4970518;28;20046;-90
2023/01/20 02:35:48;;;;;;;28.90;17.80;;;;;;;16.01;45.63;92504.88;4956649;28;20125;-91
2023/01/20 02:38:32;;;;;;;25.38;15.85;;;;;;;15.96;44.89;92503.69;4954637;28;20113;-90
2023/01/20 02:41:19;;;;;;;28.98;16.90;;;;;;;15.98;44.20;92500.44;4971033;28;20452;-91
2023/01/20 02:43:52;;;;;;;25.30;15.50;;;;;;;15.94;44.84;92508.19;4955286;28;20045;-91
2023/01/20 02:46:39;;;;;;;19.55;12.95;;;;;;;15.90;43.92;92503.03;4955082;28;20073;-91
2023/01/20 02:49:07;;;;;;;23.17;15.32;;;;;;;15.94;44.62;92495.28;4962042;28;20054;-90
2023/01/20 02:51:37;;;;;;;19.45;12.43;;;;;;;15.91;44.07;92490.13;4953256;28;20434;-90
2023/01/20 02:54:06;;;;;;;27.25;17.88;;;;;;;15.93;44.67;92506.72;4954864;28;20034;-90
2023/01/20 02:56:31;;;;;;;16.17;11.57;;;;;;;15.96;44.49;92495.50;4971118;28;20505;-90
2023/01/20 02:58:56;;;;;;;21.75;15.52;;;;;;;15.95;44.14;92506.94;4938570;28;20145;-91
2023/01/20 03:01:26;;;;;;;21.27;14.32;;;;;;;15.96;45.06;92506.41;4987317;28;20046;-90
2023/01/20 03:03:52;;;;;;;16.95;10.95;;;;;;;15.93;43.94;92495.81;4938665;28;20121;-91
2023/01/20 03:06:20;;;;;;;27.88;18.13;;;;;;;16.00;44.60;92506.88;4954341;28;20039;-91
2023/01/20 03:08:45;;;;;;;14.32;10.48;;;;;;;15.91;44.05;92499.03;4939128;28;20432;-90
2023/01/20 03:11:10;;;;;;;29.48;17.80;;;;;;;15.92;44.02;92508.69;4954312;28;20521;-90
2023/01/20 03:14:08;;;;;;;15.48;11.90;;;;;;;15.95;44.97;92509.66;4938442;28;20153;-91
2023/01/20 03:16:33;;;;;;;17.63;12.95;;;;;;;15.97;44.65;92509.88;4973155;28;20045;-91
2023/01/20 03:18:58;;;;;;;16.52;11.38;;;;;;;15.96;44.39;92511.88;4954510;28;20038;-90
2023/01/20 03:21:24;;;;;;;23.30;14.38;;;;;;;15.96;44.80;92514.59;4975154;28;20046;-91
2023/01/20 03:23:51;;;;;;;13.30;10.02;;;;;;;15.92;44.15;92510.69;4942679;28;20049;-90
2023/01/20 03:26:17;;;;;;;12.38;9.40;;;;;;;15.98;43.84;92509.38;4942189;28;20053;-90
2023/01/20 03:28:43;;;;;;;25.67;15.20;;;;;;;15.97;44.39;92507.16;4942363;28;20039;-90
2023/01/20 03:31:22;;;;;;;20.38;12.38;;;;;;;15.93;44.61;92512.16;4946726;28;20038;-91
2023/01/20 03:33:49;;;;;;;12.10;9.25;;;;;;;15.93;43.71;92512.91;4945102;28;20050;-90
2023/01/20 03:36:14;;;;;;;13.70;9.85;;;;;;;15.92;43.53;92513.41;4941916;28;20039;-90
2023/01/20 03:38:41;;;;;;;27.92;17.92;;;;;;;16.01;44.64;92502.88;4950987;28;20042;-90
2023/01/20 03:41:10;;;;;;;16.92;11.07;;;;;;;15.95;44.29;92513.13;4941539;28;20489;-91
2023/01/20 03:43:44;;;;;;;14.85;10.00;;;;;;;15.93;43.94;92506.72;4974140;28;20046;-91
2023/01/20 03:46:27;;;;;;;15.73;10.65;;;;;;;15.95;43.69;92506.94;4973845;28;20030;-90
2023/01/20 03:49:00;;;;;;;17.38;13.07;;;;;;;15.97;44.18;92502.44;4959118;28;20281;-91
2023/01/20 03:51:33;;;;;;;15.27;10.30;;;;;;;15.95;43.60;92496.03;4956577;28;20129;-91
2023/01/20 03:54:01;;;;;;;14.38;9.70;;;;;;;15.94;43.98;92503.47;4942184;28;20116;-90
2023/01/20 03:56:40;;;;;;;32.08;20.55;;;;;;;16.00;45.14;92493.22;4941721;28;20497;-91
2023/01/20 03:59:05;;;;;;;21.70;14.43;;;;;;;16.00;44.83;92497.94;4973870;28;20042;-91
2023/01/20 04:01:35;;;;;;;35.75;24.92;;;;;;;16.01;45.56;92493.97;4940858;28;20039;-90
2023/01/20 04:04:02;;;;;;;14.77;10.20;;;;;;;15.97;44.40;92494.25;4957928;28;20038;-91
2023/01/20 04:06:27;;;;;;;18.92;12.85;;;;;;;15.99;44.78;92499.94;4941274;28;20493;-91
2023/01/20 04:08:54;;;;;;;15.18;10.95;;;;;;;16.01;45.04;92494.72;4941762;28;20092;-90
2023/01/20 04:11:19;;;;;;;16.67;11.35;;;;;;;15.94;43.88;92491.84;4957076;28;20101;-91
2023/01/20 04:13:45;;;;;;;22.65;13.90;;;;;;;15.96;44.41;92492.06;4941269;28;20031;-90
2023/01/20 04:16:12;;;;;;;22.33;13.98;;;;;;;15.96;44.62;92492.06;4966164;28;20031;-91
2023/01/20 04:18:45;;;;;;;15.93;11.10;;;;;;;15.92;43.77;92494.34;4942094;28;20058;-90
2023/01/20 04:21:14;;;;;;;17.63;13.32;;;;;;;15.97;45.65;92497.00;4969986;28;20027;-90
2023/01/20 04:23:42;;;;;;;15.93;10.13;;;;;;;15.95;43.88;92494.03;4972711;28;20073;-90
2023/01/20 04:26:08;;;;;;;23.13;15.20;;;;;;;15.97;45.95;92497.00;4941263;28;20038;-91
2023/01/20 04:28:33;;;;;;;29.08;18.50;;;;;;;15.96;44.76;92498.25;4973615;28;20393;-91
2023/01/20 04:30:59;;;;;;;20.73;13.02;;;;;;;15.96;44.80;92498.25;4957578;28;20437;-90
2023/01/20 04:33:24;;;;;;;17.90;11.27;;;;;;;15.91;43.97;92507.22;4939965;28;20047;-91
2023/01/20 04:35:49;;;;;;;18.88;13.07;;;;;;;15.94;44.30;92513.63;4957857;28;20038;-91
2023/01/20 04:38:15;;;;;;;13.38;9.25;;;;;;;15.93;44.07;92514.88;4940749;28;20039;-91
2023/01/20 04:40:40;;;;;;;26.92;17.98;;;;;;;15.96;45.02;92517.31;4956968;28;20038;-90
2023/01/20 04:43:06;;;;;;;15.15;10.27;;;;;;;15.88;44.23;92527.34;4956154;28;20039;-90
2023/01/20 04:45:31;;;;;;;13.85;9.32;;;;;;;15.89;43.86;92522.63;4957122;28;20046;-91
2023/01/20 04:47:56;;;;;;;12.10;8.57;;;;;;;15.87;44.07;92512.22;4953487;28;20046;-90
2023/01/20 04:50:22;;;;;;;19.42;12.27;;;;;;;15.94;44.62;92522.56;4956978;28;20050;-90
2023/01/20 04:52:47;;;;;;;18.85;12.73;;;;;;;15.91;44.79;92525.56;4941004;28;20049;-90
2023/01/20 04:55:13;;;;;;;22.85;13.35;;;;;;;15.93;44.81;92520.34;4940614;28;20034;-90
2023/01/20 04:57:38;;;;;;;14.90;9.93;;;;;;;15.90;44.33;92518.63;4940870;28;20591;-91
2023/01/20 05:00:05;;;;;;;16.23;10.75;;;;;;;15.92;44.02;92525.06;4940906;28;20034;-90
2023/01/20 05:02:30;;;;;;;19.73;12.65;;;;;;;15.94;44.82;92527.25;4940479;28;20042;-90
2023/01/20 05:04:56;;;;;;;27.13;17.20;;;;;;;15.97;44.74;92521.53;4937650;28;20047;-91
2023/01/20 05:07:21;;;;;;;12.95;9.90;;;;;;;15.94;44.27;92541.63;4959843;28;20047;-91
2023/01/20 05:09:46;;;;;;;12.77;9.45;;;;;;;15.94;45.03;92538.91;4971719;28;20039;-91
2023/01/20 05:12:12;;;;;;;26.48;17.08;;;;;;;15.97;44.75;92548.78;4971740;28;20490;-90
2023/01/20 05:14:38;;;;;;;25.92;17.42;;;;;;;15.99;45.40;92545.53;4946839;28;20049;-91
2023/01/20 05:17:04;;;;;;;12.18;9.07;;;;;;;15.91;44.07;92548.09;4964009;28;20038;-90
2023/01/20 05:19:29;;;;;;;15.35;10.95;;;;;;;15.90;44.32;92552.09;4978750;28;20043;-91
2023/01/20 05:21:54;;;;;;;20.38;14.48;;;;;;;15.95;44.80;92547.81;4940846;28;20056;-91
2023/01/20 05:24:20;;;;;;;34.03;20.17;;;;;;;15.94;44.98;92557.25;4955938;28;20919;-91
2023/01/20 05:26:45;;;;;;;20.90;13.75;;;;;;;15.97;44.41;92558.94;4940463;28;20043;-90
2023/01/20 05:29:11;;;;;;;20.58;14.23;;;;;;;15.91;44.84;92569.16;4955174;28;20069;-91
2023/01/20 05:31:37;;;;;;;14.95;9.95;;;;;;;15.89;44.18;92561.50;4956160;28;20517;-91
2023/01/20 05:34:03;;;;;;;37.53;25.75;;;;;;;15.97;45.59;92556.97;4940503;28;20057;-90
2023/01/20 05:36:31;;;;;;;18.67;12.93;;;;;;;15.91;44.07;92553.56;4940722;28;20405;-91
2023/01/20 05:38:57;;;;;;;12.20;8.73;;;;;;;15.85;43.68;92555.59;4947071;28;20098;-91
2023/01/20 05:41:22;;;;;;;17.73;11.02;;;;;;;15.91;44.99;92555.53;4939031;28;20046;-90
2023/01/20 05:43:47;;;;;;;27.20;16.48;;;;;;;15.86;43.92;92561.78;4955327;28;20080;-90
2023/01/20 05:46:14;;;;;;;28.98;19.02;;;;;;;15.91;45.36;92566.44;4939868;28;20042;-90
2023/01/20 05:48:39;;;;;;;13.23;8.82;;;;;;;15.86;44.34;92572.69;4956205;28;20121;-91
2023/01/20 05:51:05;;;;;;;21.60;13.93;;;;;;;15.92;44.96;92563.22;4955743;28;20037;-90
2023/01/20 05:53:31;;;;;;;10.77;7.43;;;;;;;15.85;43.77;92571.97;4970988;28;20050;-92
2023/01/20 05:56:00;;;;;;;9.57;6.72;;;;;;;15.87;43.85;92568.72;4940502;28;20046;-91
2023/01/20 05:58:26;;;;;;;12.30;7.95;;;;;;;15.91;43.88;92569.16;4955141;28;20097;-90
2023/01/20 06:00:52;;;;;;;16.25;10.50;;;;;;;15.90;44.45;92584.06;4971746;28;20529;-90
2023/01/20 06:03:17;;;;;;;10.93;7.35;;;;;;;15.84;43.81;92595.00;4938770;28;20038;-91
2023/01/20 06:05:43;;;;;;;7.82;5.65;;;;;;;15.83;44.53;92596.25;4939624;28;20046;-90
2023/01/20 06:08:08;;;;;;;13.88;9.10;;;;;;;15.89;43.98;92585.31;4955135;28;20043;-91
2023/01/20 06:10:34;;;;;;;11.65;8.35;;;;;;;15.92;44.46;92587.75;4956115;28;20046;-91
2023/01/20 06:12:59;;;;;;;22.60;12.65;;;;;;;15.89;44.92;92599.66;4961805;28;20165;-91
2023/01/20 06:15:24;;;;;;;12.73;9.23;;;;;;;15.85;44.11;92606.66;4982844;28;20449;-90
2023/01/20 06:17:50;;;;;;;10.80;7.00;;;;;;;15.84;43.91;92602.44;4980748;28;20034;-90
2023/01/20 06:20:16;;;;;;;15.25;9.30;;;;;;;15.88;44.82;92616.53;4960917;28;20049;-91
2023/01/20 06:22:41;;;;;;;8.02;6.10;;;;;;;15.85;44.18;92623.00;4939453;28;20413;-91
2023/01/20 06:25:07;;;;;;;17.40;11.38;;;;;;;15.93;44.47;92618.47;4954621;28;20034;-91
2023/01/20 06:27:32;;;;;;;12.98;7.07;;;;;;;15.81;43.99;92626.00;4937129;28;20690;-90
2023/01/20 06:29:58;;;;;;;12.48;8.15;;;;;;;15.87;44.38;92629.41;4938879;28;20039;-91
2023/01/20 06:32:23;;;;;;;10.25;7.07;;;;;;;15.85;44.58;92626.47;4938799;28;20034;-90
2023/01/20 06:34:48;;;;;;;18.00;11.23;;;;;;;15.98;45.06;92623.13;4955102;28;20031;-90
2023/01/20 06:37:14;;;;;;;7.07;5.07;;;;;;;15.85;44.01;92637.38;4970437;28;20069;-91
2023/01/20 06:39:39;;;;;;;18.90;13.05;;;;;;;15.95;45.80;92640.50;4955724;28;20042;-90
2023/01/20 06:42:05;;;;;;;7.32;5.80;;;;;;;15.93;43.92;92643.00;4954510;28;20026;-90
2023/01/20 06:44:32;;;;;;;7.10;5.72;;;;;;;15.92;44.12;92650.44;4955048;28;20042;-92
2023/01/20 06:46:58;;;;;;;7.22;5.03;;;;;;;15.91;44.28;92657.13;4945763;28;20147;-91
2023/01/20 06:49:24;;;;;;;8.23;5.55;;;;;;;15.94;43.94;92663.53;4938149;28;20393;-91
2023/01/20 06:51:49;;;;;;;5.90;4.90;;;;;;;15.93;43.74;92659.34;4954566;28;20031;-91
2023/01/20 06:54:14;;;;;;;25.65;16.83;;;;;;;16.01;44.22;92671.91;4941891;28;20049;-91
2023/01/20 06:56:40;;;;;;;24.58;16.77;;;;;;;15.97;44.10;92663.25;4955562;28;20379;-91
2023/01/20 06:59:05;;;;;;;11.30;8.25;;;;;;;15.96;43.67;92671.94;4945428;28;20039;-91
2023/01/20 07:01:31;;;;;;;11.35;7.88;;;;;;;15.91;44.29;92676.22;4940422;28;20061;-92
2023/01/20 07:03:56;;;;;;;6.95;4.93;;;;;;;15.88;43.80;92685.41;4938289;28;20045;-91
2023/01/20 07:06:25;;;;;;;15.55;11.65;;;;;;;15.98;44.37;92683.09;4938040;28;20030;-91
2023/01/20 07:08:50;;;;;;;11.32;8.13;;;;;;;15.94;44.08;92682.63;4970473;28;20043;-90
2023/01/20 07:11:16;;;;;;;11.63;8.63;;;;;;;15.98;45.34;92691.25;4938103;28;20058;-90
2023/01/20 07:13:41;;;;;;;14.13;9.30;;;;;;;15.96;44.33;92689.03;4954383;28;20061;-90
2023/01/20 07:16:07;;;;;;;9.07;6.88;;;;;;;15.91;43.94;92698.00;4965796;28;20043;-91
2023/01/20 07:18:32;;;;;;;11.07;7.25;;;;;;;15.96;44.28;92693.75;4938668;28;20735;-90
2023/01/20 07:20:59;;;;;;;12.88;9.00;;;;;;;15.91;44.23;92686.38;4939430;28;20516;-91
2023/01/20 07:23:24;;;;;;;8.05;5.93;;;;;;;15.86;44.03;92695.34;4954110;28;20042;-90
2023/01/20 07:25:59;;;;;;;6.35;4.32;;;;;;;15.87;43.85;92696.81;4949202;28;20378;-91
2023/01/20 07:28:25;;;;;;;8.48;5.80;;;;;;;15.83;43.63;92699.09;4962338;28;20042;-90
2023/01/20 07:30:50;;;;;;;26.42;16.08;;;;;;;15.89;44.55;92700.50;4940302;28;20145;-90
2023/01/20 07:33:16;;;;;;;8.63;5.78;;;;;;;15.97;44.14;92698.69;4960746;28;20042;-91
2023/01/20 07:35:41;;;;;;;16.33;10.50;;;;;;;15.91;43.85;92705.44;4955603;28;20039;-90
2023/01/20 07:38:07;;;;;;;15.95;8.05;;;;;;;15.93;43.81;92711.13;4976683;28;20050;-92
2023/01/20 07:40:33;;;;;;;7.57;5.38;;;;;;;15.89;43.91;92713.41;4957412;28;20050;-93
2023/01/20 07:43:02;;;;;;;6.90;5.43;;;;;;;15.91;43.85;92713.63;4925653;29;20531;-92
2023/01/20 07:45:28;;;;;;;21.38;14.35;;;;;;;16.04;44.61;92722.66;4932382;28;20421;-91
2023/01/20 07:47:55;;;;;;;9.48;6.43;;;;;;;15.88;44.08;92709.94;4920107;28;20063;-91
2023/01/20 07:50:20;;;;;;;24.13;17.02;;;;;;;15.96;45.76;92719.03;4925033;28;20051;-92
2023/01/20 07:52:45;;;;;;;12.07;7.75;;;;;;;15.95;44.02;92716.81;4941984;28;20118;-90
2023/01/20 07:55:11;;;;;;;11.50;7.30;;;;;;;15.92;44.40;92713.13;4912144;28;20043;-91
2023/01/20 07:57:36;;;;;;;8.13;5.78;;;;;;;15.86;44.13;92711.69;4933270;28;20055;-91
2023/01/20 08:00:03;;;;;;;11.10;7.57;;;;;;;15.89;44.19;92703.22;4929301;28;20043;-90
2023/01/20 08:02:28;;;;;;;9.38;6.07;;;;;;;15.87;44.01;92713.16;4942931;28;20149;-90
2023/01/20 08:04:53;;;;;;;7.05;4.05;;;;;;;15.95;46.28;92714.09;4919497;29;20410;-90
2023/01/20 08:07:19;;;;;;;8.30;6.30;;;;;;;15.95;44.00;92703.91;4899638;28;20046;-91
2023/01/20 08:09:45;;;;;;;9.73;6.35;;;;;;;16.02;44.28;92721.72;4965672;28;20163;-90
2023/01/20 08:12:10;;;;;;;18.13;11.93;;;;;;;15.99;45.26;92720.00;4938994;28;20042;-90
2023/01/20 08:14:35;;;;;;;21.80;12.60;;;;;;;15.99;44.13;92728.19;4930090;29;20417;-90
2023/01/20 08:17:01;;;;;;;8.95;5.65;;;;;;;15.91;43.64;92724.53;4945927;28;20533;-90
2023/01/20 08:19:28;;;;;;;6.43;4.45;;;;;;;15.90;44.14;92723.06;4918892;28;20047;-91
2023/01/20 08:21:54;;;;;;;9.65;5.57;;;;;;;15.90;44.22;92731.22;4933223;29;20081;-90
2023/01/20 08:24:19;;;;;;;10.60;5.05;;;;;;;15.89;44.02;92727.75;4934502;28;20043;-91
2023/01/20 08:26:45;;;;;;;5.55;3.75;;;;;;;15.87;43.94;92726.78;4964585;28;20041;-91
2023/01/20 08:29:10;;;;;;;7.32;5.95;;;;;;;15.93;44.08;92736.41;4945540;28;20034;-91
2023/01/20 08:31:36;;;;;;;10.43;7.57;;;;;;;15.98;43.93;92732.16;4957632;28;20054;-91
2023/01/20 08:34:01;;;;;;;7.75;5.72;;;;;;;15.98;44.28;92734.88;4958967;28;20042;-91
2023/01/20 08:36:30;;;;;;;8.40;5.55;;;;;;;15.97;44.19;92745.03;4967467;28;20157;-90
2023/01/20 08:38:56;;;;;;;20.20;11.02;;;;;;;16.01;44.68;92744.75;4942030;28;20046;-91
2023/01/20 08:41:23;;;;;;;8.43;6.03;;;;;;;15.95;44.41;92744.81;4940112;28;20042;-93
2023/01/20 08:43:49;;;;;;;17.55;11.55;;;;;;;15.96;45.01;92753.72;4958328;28;20065;-93
2023/01/20 08:46:15;;;;;;;7.55;5.90;;;;;;;15.91;44.56;92752.53;4957051;28;20672;-92
2023/01/20 08:48:41;;;;;;;19.90;12.40;;;;;;;16.00;45.16;92746.00;4950278;28;20057;-91
2023/01/20 08:51:12;;;;;;;8.07;5.30;;;;;;;15.97;44.04;92757.94;4956796;28;20164;-92
2023/01/20 08:53:38;;;;;;;17.95;10.75;;;;;;;15.96;44.47;92759.91;4941828;28;20061;-91
2023/01/20 08:56:04;;;;;;;7.20;5.13;;;;;;;16.03;44.57;92761.31;4940175;28;20042;-91
2023/01/20 08:58:29;;;;;;;17.25;10.63;;;;;;;15.97;44.95;92766.84;4951753;28;20042;-92
2023/01/20 09:00:55;;;;;;;13.75;6.47;;;;;;;15.97;44.21;92760.66;4957165;28;20096;-93
2023/01/20 09:03:21;;;;;;;9.32;6.40;;;;;;;15.96;43.84;92759.19;4956899;28;20026;-92
2023/01/20 09:05:46;;;;;;;8.82;6.25;;;;;;;15.95;44.31;92766.63;4956911;28;20104;-92
2023/01/20 09:08:12;;;;;;;7.57;4.78;;;;;;;15.99;44.07;92769.81;4971831;28;20073;-92
2023/01/20 09:10:37;;;;;;;6.07;4.35;;;;;;;15.91;43.98;92766.16;4941102;28;20038;-91
2023/01/20 09:13:02;;;;;;;14.32;10.00;;;;;;;16.01;45.10;92778.22;4956555;28;20405;-91
2023/01/20 09:15:28;;;;;;;19.75;11.35;;;;;;;16.07;46.08;92767.97;4962184;28;20508;-93
2023/01/20 09:17:53;;;;;;;5.03;3.92;;;;;;;15.95;44.05;92774.06;4939562;28;20043;-93
2023/01/20 09:20:18;;;;;;;5.35;3.78;;;;;;;15.96;44.58;92781.00;4942128;28;20046;-92
2023/01/20 09:22:44;;;;;;;7.13;4.47;;;;;;;15.97;43.77;92783.19;4949271;28;20034;-92
2023/01/20 09:25:09;;;;;;;7.93;5.10;;;;;;;15.96;44.17;92778.25;4956198;28;20049;-93
2023/01/20 09:27:35;;;;;;;5.78;4.28;;;;;;;16.02;43.84;92790.56;4941852;28;20070;-93
2023/01/20 09:30:01;;;;;;;6.80;4.55;;;;;;;16.03;44.70;92791.31;4940309;28;20058;-92
2023/01/20 09:32:26;;;;;;;6.28;4.70;;;;;;;15.98;44.44;92792.13;4956708;28;20026;-92
2023/01/20 09:34:52;;;;;;;12.85;8.20;;;;;;;16.08;45.43;92791.25;4957913;28;20489;-92
2023/01/20 09:45:53;;;;;;;8.68;6.05;;;;;;;16.01;44.66;92789.13;4989501;28;20049;-91
2023/01/20 09:54:41;;;;;;;;;;;;;;;16.01;44.43;92794.56;4969068;28;20401;-92
2023/01/20 09:57:06;;;;;;;8.88;6.13;;;;;;;16.03;44.43;92796.75;4967497;28;19925;-92
2023/01/20 09:59:36;;;;;;;9.00;6.35;;;;;;;15.99;43.86;92799.78;4958269;28;20295;-92
2023/01/20 10:02:04;;;;;;;4.90;3.60;;;;;;;15.93;44.10;92803.81;4940084;28;20046;-91
2023/01/20 10:04:34;;;;;;;10.35;6.38;;;;;;;15.91;44.67;92807.03;4950179;28;20112;-92
2023/01/20 10:07:09;;;;;;;9.45;5.03;;;;;;;15.93;44.29;92807.28;4940233;28;20043;-91
2023/01/20 10:09:54;;;;;;;14.95;9.18;;;;;;;15.96;44.34;92800.06;4971612;28;20136;-92
2023/01/20 10:12:32;;;;;;;6.07;4.22;;;;;;;16.01;43.96;92793.84;4955286;28;20046;-92
2023/01/20 10:15:06;;;;;;;4.95;3.88;;;;;;;15.95;44.40;92804.78;4942238;28;20089;-92
2023/01/20 10:17:35;;;;;;;12.80;7.43;;;;;;;16.00;44.64;92805.97;4955439;28;20058;-92
2023/01/20 10:20:09;;;;;;;10.95;6.72;;;;;;;15.98;43.91;92803.03;4960400;28;20112;-92
2023/01/20 10:22:51;;;;;;;8.60;5.57;;;;;;;15.97;44.12;92807.00;4939802;28;20188;-92
2023/01/20 10:25:22;;;;;;;16.88;11.48;;;;;;;16.03;44.60;92807.66;4943126;28;20501;-92
2023/01/20 10:27:51;;;;;;;8.00;5.07;;;;;;;15.96;44.51;92806.25;4955777;28;20482;-91
2023/01/20 10:30:17;;;;;;;8.32;5.45;;;;;;;15.98;44.51;92808.47;4938572;28;20038;-92
2023/01/20 10:32:52;;;;;;;8.60;6.32;;;;;;;16.02;44.22;92801.47;4931832;29;20190;-93
2023/01/20 10:35:23;;;;;;;5.97;4.45;;;;;;;16.00;44.10;92803.25;4949000;28;20344;-92
2023/01/20 10:37:51;;;;;;;8.02;5.10;;;;;;;16.02;43.97;92806.22;4916416;29;20043;-92
2023/01/20 10:40:35;;;;;;;10.70;6.10;;;;;;;16.04;44.20;92818.06;4930779;28;20138;-92
2023/01/20 10:43:08;;;;;;;7.38;5.05;;;;;;;16.01;44.21;92804.75;4931714;29;20047;-92
2023/01/20 10:45:45;;;;;;;13.80;8.88;;;;;;;16.03;44.57;92804.94;4915506;29;20043;-93
2023/01/20 10:48:34;;;;;;;5.35;3.95;;;;;;;16.02;44.03;92806.22;4946967;28;20038;-93
2023/01/20 10:51:08;;;;;;;7.75;4.55;;;;;;;16.00;44.23;92809.44;4933900;29;20501;-92
2023/01/20 10:53:46;;;;;;;5.25;3.60;;;;;;;16.01;44.14;92802.00;4951546;28;20058;-93
2023/01/20 10:56:19;;;;;;;9.63;6.30;;;;;;;16.01;44.21;92807.47;4930545;29;20082;-93
2023/01/20 10:58:46;;;;;;;8.60;5.63;;;;;;;15.99;44.20;92804.50;4931503;29;20054;-92
2023/01/20 11:01:14;;;;;;;9.93;7.07;;;;;;;16.00;45.50;92804.00;4930559;29;20047;-92
2023/01/20 11:03:41;;;;;;;7.65;4.90;;;;;;;15.97;44.46;92807.75;4932438;29;20051;-92
2023/01/20 11:06:06;;;;;;;4.57;3.47;;;;;;;15.98;44.65;92809.22;4930658;29;20035;-93
2023/01/20 11:08:32;;;;;;;7.05;4.38;;;;;;;16.00;44.08;92804.00;4915717;29;20032;-92
2023/01/20 11:11:09;;;;;;;10.77;7.20;;;;;;;15.99;44.39;92799.78;4966941;28;20042;-93
2023/01/20 11:13:34;;;;;;;6.38;4.82;;;;;;;16.02;43.96;92798.03;4939199;28;20068;-92
2023/01/20 11:16:03;;;;;;;15.63;10.60;;;;;;;16.07;45.84;92800.69;4960963;28;20035;-92
2023/01/20 11:18:29;;;;;;;4.55;3.83;;;;;;;16.06;44.36;92793.75;4938583;28;20073;-93
2023/01/20 11:21:08;;;;;;;11.57;6.07;;;;;;;16.05;44.35;92797.00;4960502;28;20449;-93
2023/01/20 11:23:35;;;;;;;15.88;10.98;;;;;;;16.09;45.41;92789.28;4942071;28;20042;-92
2023/01/20 11:26:08;;;;;;;9.90;6.03;;;;;;;16.09;44.54;92787.28;4970669;28;20069;-91
2023/01/20 11:28:43;;;;;;;7.05;4.80;;;;;;;16.05;44.30;92794.25;4949474;28;20038;-92
2023/01/20 11:31:09;;;;;;;10.18;6.85;;;;;;;16.00;44.45;92800.53;4941226;28;20059;-93
2023/01/20 11:33:34;;;;;;;6.90;5.35;;;;;;;16.04;44.24;92795.50;4942293;28;20050;-92
2023/01/20 11:36:01;;;;;;;7.70;4.85;;;;;;;16.01;44.37;92788.38;4954941;28;20061;-92
2023/01/20 11:38:29;;;;;;;6.20;4.38;;;;;;;15.98;44.37;92779.22;4954543;28;20065;-93
2023/01/20 11:40:56;;;;;;;8.85;5.57;;;;;;;16.00;44.38;92784.91;4950169;28;20097;-93